YZCE weather

Churchable Airstrip
Churchable, Queensland, Australia

Public forecast

Using degrees Celsius for public forecast. Weather courtesy of forecast.io.

METAR (pilot weather report)

Closest report is RAAF Base Amberley, 21.8 nm (40.4 km) SE. Retrieved 2019/04/22 05:30 UTC (13 minutes ago):

YAMB 220530Z AUTO 09014KT //// // SCT042 OVC062 24/18 Q1019

TAF (pilot weather forecast)

Forecast is more than 12 hours old.

Closest forecast is RAAF Base Amberley, 21.8 nm (40.4 km) SE. Retrieved 2019/04/21 00:00 UTC (1 day ago):

TAF YAMB 212309Z 2200/2218 12012KT 9999 -SHRA SCT035 SCT050 FM221000 17006KT 9999 -SHRA FEW015 SCT025 BKN040 FM221600 VRB03KT 9999 MIFG FEW003 SCT020 INTER 2212/2218 5000 -SHRA SCT015 BKN030